sensor_id;sensor_type;location;lat;lon;timestamp;temperature;humidity
49148;DHT22;41980;45.550;12.070;2023-05-07T00:00:14;17.50;63.10
49148;DHT22;41980;45.550;12.070;2023-05-07T00:06:19;17.50;63.50
49148;DHT22;41980;45.550;12.070;2023-05-07T00:12:20;17.40;62.50
49148;DHT22;41980;45.550;12.070;2023-05-07T00:18:22;17.40;62.60
49148;DHT22;41980;45.550;12.070;2023-05-07T00:24:24;17.40;62.60
49148;DHT22;41980;45.550;12.070;2023-05-07T00:30:25;17.40;63.20
49148;DHT22;41980;45.550;12.070;2023-05-07T00:36:27;17.30;63.40
49148;DHT22;41980;45.550;12.070;2023-05-07T00:42:28;17.20;63.60
49148;DHT22;41980;45.550;12.070;2023-05-07T00:48:30;17.10;63.40
49148;DHT22;41980;45.550;12.070;2023-05-07T00:54:32;17.00;63.80
49148;DHT22;41980;45.550;12.070;2023-05-07T01:00:35;17.00;65.30
49148;DHT22;41980;45.550;12.070;2023-05-07T01:06:37;16.90;64.90
49148;DHT22;41980;45.550;12.070;2023-05-07T01:12:39;16.90;63.80
49148;DHT22;41980;45.550;12.070;2023-05-07T01:18:41;16.90;65.30
49148;DHT22;41980;45.550;12.070;2023-05-07T01:24:43;16.90;64.00
49148;DHT22;41980;45.550;12.070;2023-05-07T01:30:46;17.00;70.40
49148;DHT22;41980;45.550;12.070;2023-05-07T01:36:50;17.00;63.70
49148;DHT22;41980;45.550;12.070;2023-05-07T01:42:52;17.10;66.20
49148;DHT22;41980;45.550;12.070;2023-05-07T01:48:54;17.20;63.60
49148;DHT22;41980;45.550;12.070;2023-05-07T01:54:56;17.20;64.30
49148;DHT22;41980;45.550;12.070;2023-05-07T02:00:57;17.20;63.50
49148;DHT22;41980;45.550;12.070;2023-05-07T02:06:59;17.20;63.40
49148;DHT22;41980;45.550;12.070;2023-05-07T02:13:01;17.20;65.00
49148;DHT22;41980;45.550;12.070;2023-05-07T02:19:03;17.10;64.00
49148;DHT22;41980;45.550;12.070;2023-05-07T02:25:05;17.10;64.70
49148;DHT22;41980;45.550;12.070;2023-05-07T02:31:07;17.00;65.60
49148;DHT22;41980;45.550;12.070;2023-05-07T02:37:09;17.00;64.10
49148;DHT22;41980;45.550;12.070;2023-05-07T02:43:11;17.00;68.70
49148;DHT22;41980;45.550;12.070;2023-05-07T02:49:16;16.90;66.60
49148;DHT22;41980;45.550;12.070;2023-05-07T02:55:18;16.80;70.30
49148;DHT22;41980;45.550;12.070;2023-05-07T03:01:19;16.60;65.00
49148;DHT22;41980;45.550;12.070;2023-05-07T03:07:30;16.60;69.10
49148;DHT22;41980;45.550;12.070;2023-05-07T03:13:32;16.50;67.70
49148;DHT22;41980;45.550;12.070;2023-05-07T03:19:34;16.50;68.00
49148;DHT22;41980;45.550;12.070;2023-05-07T03:25:36;16.50;66.20
49148;DHT22;41980;45.550;12.070;2023-05-07T03:31:38;16.50;64.70
49148;DHT22;41980;45.550;12.070;2023-05-07T03:37:40;16.50;65.80
49148;DHT22;41980;45.550;12.070;2023-05-07T03:43:43;16.50;65.80
49148;DHT22;41980;45.550;12.070;2023-05-07T03:49:47;16.50;64.90
49148;DHT22;41980;45.550;12.070;2023-05-07T03:55:50;16.50;64.80
49148;DHT22;41980;45.550;12.070;2023-05-07T04:01:52;16.50;67.20
49148;DHT22;41980;45.550;12.070;2023-05-07T04:07:58;16.40;65.70
49148;DHT22;41980;45.550;12.070;2023-05-07T04:14:05;16.50;65.10
49148;DHT22;41980;45.550;12.070;2023-05-07T04:20:09;16.60;65.20
49148;DHT22;41980;45.550;12.070;2023-05-07T04:26:12;16.80;68.70
49148;DHT22;41980;45.550;12.070;2023-05-07T04:32:17;17.00;67.20
49148;DHT22;41980;45.550;12.070;2023-05-07T04:38:19;17.20;67.10
49148;DHT22;41980;45.550;12.070;2023-05-07T04:44:23;17.30;63.90
49148;DHT22;41980;45.550;12.070;2023-05-07T04:50:26;17.50;63.80
49148;DHT22;41980;45.550;12.070;2023-05-07T04:56:34;17.50;66.80
49148;DHT22;41980;45.550;12.070;2023-05-07T05:02:36;17.70;65.40
49148;DHT22;41980;45.550;12.070;2023-05-07T05:08:38;18.50;68.20
49148;DHT22;41980;45.550;12.070;2023-05-07T05:14:41;20.00;63.20
49148;DHT22;41980;45.550;12.070;2023-05-07T05:20:43;20.40;61.50
49148;DHT22;41980;45.550;12.070;2023-05-07T05:26:46;20.40;62.10
49148;DHT22;41980;45.550;12.070;2023-05-07T05:32:48;20.20;62.10
49148;DHT22;41980;45.550;12.070;2023-05-07T05:38:50;21.40;61.80
49148;DHT22;41980;45.550;12.070;2023-05-07T05:44:52;22.70;59.70
49148;DHT22;41980;45.550;12.070;2023-05-07T05:50:54;23.10;59.40
49148;DHT22;41980;45.550;12.070;2023-05-07T05:56:56;22.70;59.30
49148;DHT22;41980;45.550;12.070;2023-05-07T06:02:59;22.40;59.40
49148;DHT22;41980;45.550;12.070;2023-05-07T06:09:02;23.30;58.60
49148;DHT22;41980;45.550;12.070;2023-05-07T06:15:11;24.90;57.70
49148;DHT22;41980;45.550;12.070;2023-05-07T06:24:23;26.50;54.90
49148;DHT22;41980;45.550;12.070;2023-05-07T06:30:26;27.20;54.30
49148;DHT22;41980;45.550;12.070;2023-05-07T06:36:30;27.90;54.30
49148;DHT22;41980;45.550;12.070;2023-05-07T06:42:35;28.60;53.60
49148;DHT22;41980;45.550;12.070;2023-05-07T06:48:55;29.30;53.30
49148;DHT22;41980;45.550;12.070;2023-05-07T06:54:59;30.00;52.10
49148;DHT22;41980;45.550;12.070;2023-05-07T07:01:02;30.30;50.30
49148;DHT22;41980;45.550;12.070;2023-05-07T07:07:04;30.80;51.30
49148;DHT22;41980;45.550;12.070;2023-05-07T07:13:06;31.00;50.50
49148;DHT22;41980;45.550;12.070;2023-05-07T07:19:09;31.70;50.90
49148;DHT22;41980;45.550;12.070;2023-05-07T07:25:11;32.20;50.90
49148;DHT22;41980;45.550;12.070;2023-05-07T07:31:14;32.50;50.70
49148;DHT22;41980;45.550;12.070;2023-05-07T07:37:17;32.20;49.80
49148;DHT22;41980;45.550;12.070;2023-05-07T07:43:20;32.40;46.30
49148;DHT22;41980;45.550;12.070;2023-05-07T07:49:22;32.90;48.20
49148;DHT22;41980;45.550;12.070;2023-05-07T07:55:25;33.10;46.50
49148;DHT22;41980;45.550;12.070;2023-05-07T08:01:30;33.20;45.70
49148;DHT22;41980;45.550;12.070;2023-05-07T08:07:33;33.30;45.80
49148;DHT22;41980;45.550;12.070;2023-05-07T08:13:36;33.50;45.30
49148;DHT22;41980;45.550;12.070;2023-05-07T08:19:40;33.80;45.30
49148;DHT22;41980;45.550;12.070;2023-05-07T08:25:45;33.50;44.40
49148;DHT22;41980;45.550;12.070;2023-05-07T08:31:48;33.50;44.10
49148;DHT22;41980;45.550;12.070;2023-05-07T08:37:50;33.50;44.30
49148;DHT22;41980;45.550;12.070;2023-05-07T08:43:57;32.20;43.60
49148;DHT22;41980;45.550;12.070;2023-05-07T08:50:01;31.20;44.30
49148;DHT22;41980;45.550;12.070;2023-05-07T08:56:05;30.80;43.90
49148;DHT22;41980;45.550;12.070;2023-05-07T09:02:10;30.20;43.90
49148;DHT22;41980;45.550;12.070;2023-05-07T09:08:15;29.50;44.10
49148;DHT22;41980;45.550;12.070;2023-05-07T09:14:21;28.90;44.30
49148;DHT22;41980;45.550;12.070;2023-05-07T09:20:24;28.40;44.60
49148;DHT22;41980;45.550;12.070;2023-05-07T09:26:26;27.80;45.10
49148;DHT22;41980;45.550;12.070;2023-05-07T09:32:35;27.10;45.70
49148;DHT22;41980;45.550;12.070;2023-05-07T09:38:41;26.90;45.70
49148;DHT22;41980;45.550;12.070;2023-05-07T09:44:44;26.70;46.00
49148;DHT22;41980;45.550;12.070;2023-05-07T09:50:55;27.00;46.10
49148;DHT22;41980;45.550;12.070;2023-05-07T09:57:02;27.90;45.60
49148;DHT22;41980;45.550;12.070;2023-05-07T10:03:09;29.20;44.60
49148;DHT22;41980;45.550;12.070;2023-05-07T10:09:21;30.30;43.10
49148;DHT22;41980;45.550;12.070;2023-05-07T10:15:24;30.50;42.50
49148;DHT22;41980;45.550;12.070;2023-05-07T10:21:31;30.90;42.70
49148;DHT22;41980;45.550;12.070;2023-05-07T10:27:38;31.20;42.30
49148;DHT22;41980;45.550;12.070;2023-05-07T10:33:41;30.90;42.20
49148;DHT22;41980;45.550;12.070;2023-05-07T10:39:45;30.40;42.70
49148;DHT22;41980;45.550;12.070;2023-05-07T10:46:09;29.80;42.10
49148;DHT22;41980;45.550;12.070;2023-05-07T10:52:17;29.50;42.40
49148;DHT22;41980;45.550;12.070;2023-05-07T10:58:27;29.20;42.70
49148;DHT22;41980;45.550;12.070;2023-05-07T11:04:40;29.40;42.60
49148;DHT22;41980;45.550;12.070;2023-05-07T11:10:56;29.20;42.70
49148;DHT22;41980;45.550;12.070;2023-05-07T11:17:07;29.00;43.30
49148;DHT22;41980;45.550;12.070;2023-05-07T11:29:30;28.70;43.90
49148;DHT22;41980;45.550;12.070;2023-05-07T11:35:39;28.80;44.00
49148;DHT22;41980;45.550;12.070;2023-05-07T11:41:46;28.90;44.20
49148;DHT22;41980;45.550;12.070;2023-05-07T11:47:49;28.80;44.20
49148;DHT22;41980;45.550;12.070;2023-05-07T11:53:51;28.50;44.60
49148;DHT22;41980;45.550;12.070;2023-05-07T12:05:56;28.20;45.10
49148;DHT22;41980;45.550;12.070;2023-05-07T12:12:03;28.20;45.30
49148;DHT22;41980;45.550;12.070;2023-05-07T12:18:06;28.10;45.40
49148;DHT22;41980;45.550;12.070;2023-05-07T12:24:08;28.20;45.60
49148;DHT22;41980;45.550;12.070;2023-05-07T12:30:12;28.30;45.60
49148;DHT22;41980;45.550;12.070;2023-05-07T12:36:15;28.30;45.70
49148;DHT22;41980;45.550;12.070;2023-05-07T12:42:20;28.20;45.80
49148;DHT22;41980;45.550;12.070;2023-05-07T12:48:27;28.00;46.20
49148;DHT22;41980;45.550;12.070;2023-05-07T12:54:33;27.90;46.30
49148;DHT22;41980;45.550;12.070;2023-05-07T13:00:37;27.70;46.40
49148;DHT22;41980;45.550;12.070;2023-05-07T13:06:40;27.60;46.50
49148;DHT22;41980;45.550;12.070;2023-05-07T13:12:42;27.40;46.50
49148;DHT22;41980;45.550;12.070;2023-05-07T13:18:44;27.20;46.80
49148;DHT22;41980;45.550;12.070;2023-05-07T13:24:47;27.10;46.80
49148;DHT22;41980;45.550;12.070;2023-05-07T13:30:50;27.10;46.70
49148;DHT22;41980;45.550;12.070;2023-05-07T13:36:53;27.00;46.70
49148;DHT22;41980;45.550;12.070;2023-05-07T13:42:58;27.10;46.90
49148;DHT22;41980;45.550;12.070;2023-05-07T13:49:02;27.10;46.80
49148;DHT22;41980;45.550;12.070;2023-05-07T13:55:05;27.00;47.00
49148;DHT22;41980;45.550;12.070;2023-05-07T14:01:07;26.80;47.00
49148;DHT22;41980;45.550;12.070;2023-05-07T14:07:09;26.80;47.20
49148;DHT22;41980;45.550;12.070;2023-05-07T14:13:11;26.70;47.20
49148;DHT22;41980;45.550;12.070;2023-05-07T14:19:14;26.50;47.20
49148;DHT22;41980;45.550;12.070;2023-05-07T14:25:16;26.40;47.20
49148;DHT22;41980;45.550;12.070;2023-05-07T14:31:24;26.30;47.10
49148;DHT22;41980;45.550;12.070;2023-05-07T14:37:27;26.30;47.00
49148;DHT22;41980;45.550;12.070;2023-05-07T14:43:29;26.30;46.40
49148;DHT22;41980;45.550;12.070;2023-05-07T14:49:31;26.30;46.50
49148;DHT22;41980;45.550;12.070;2023-05-07T14:55:34;26.20;46.60
49148;DHT22;41980;45.550;12.070;2023-05-07T15:01:39;26.20;46.30
49148;DHT22;41980;45.550;12.070;2023-05-07T15:07:44;26.10;46.40
49148;DHT22;41980;45.550;12.070;2023-05-07T15:13:46;26.10;46.20
49148;DHT22;41980;45.550;12.070;2023-05-07T15:19:48;26.00;45.90
49148;DHT22;41980;45.550;12.070;2023-05-07T15:25:50;26.00;46.10
49148;DHT22;41980;45.550;12.070;2023-05-07T15:31:53;26.00;46.00
49148;DHT22;41980;45.550;12.070;2023-05-07T15:37:56;26.10;45.70
49148;DHT22;41980;45.550;12.070;2023-05-07T15:43:58;26.10;45.10
49148;DHT22;41980;45.550;12.070;2023-05-07T15:50:01;26.00;45.20
49148;DHT22;41980;45.550;12.070;2023-05-07T15:56:04;25.80;44.90
49148;DHT22;41980;45.550;12.070;2023-05-07T16:02:06;25.70;45.30
49148;DHT22;41980;45.550;12.070;2023-05-07T16:08:09;25.60;45.40
49148;DHT22;41980;45.550;12.070;2023-05-07T16:14:13;25.50;45.60
49148;DHT22;41980;45.550;12.070;2023-05-07T16:20:15;25.40;45.60
49148;DHT22;41980;45.550;12.070;2023-05-07T16:26:20;25.30;45.80
49148;DHT22;41980;45.550;12.070;2023-05-07T16:32:22;25.10;45.50
49148;DHT22;41980;45.550;12.070;2023-05-07T16:38:25;25.00;45.40
49148;DHT22;41980;45.550;12.070;2023-05-07T16:44:27;24.80;45.80
49148;DHT22;41980;45.550;12.070;2023-05-07T16:50:29;24.70;46.10
49148;DHT22;41980;45.550;12.070;2023-05-07T16:56:32;24.50;46.20
49148;DHT22;41980;45.550;12.070;2023-05-07T17:02:34;24.40;46.40
49148;DHT22;41980;45.550;12.070;2023-05-07T17:08:36;24.20;46.70
49148;DHT22;41980;45.550;12.070;2023-05-07T17:14:38;24.00;47.00
49148;DHT22;41980;45.550;12.070;2023-05-07T17:20:41;23.80;47.40
49148;DHT22;41980;45.550;12.070;2023-05-07T17:26:43;23.60;47.80
49148;DHT22;41980;45.550;12.070;2023-05-07T17:32:45;23.40;48.20
49148;DHT22;41980;45.550;12.070;2023-05-07T17:38:47;23.30;48.50
49148;DHT22;41980;45.550;12.070;2023-05-07T17:44:49;23.10;48.40
49148;DHT22;41980;45.550;12.070;2023-05-07T17:50:51;22.90;48.60
49148;DHT22;41980;45.550;12.070;2023-05-07T17:56:53;22.70;48.90
49148;DHT22;41980;45.550;12.070;2023-05-07T18:02:56;22.60;49.10
49148;DHT22;41980;45.550;12.070;2023-05-07T18:09:02;22.50;49.40
49148;DHT22;41980;45.550;12.070;2023-05-07T18:15:06;22.40;49.60
49148;DHT22;41980;45.550;12.070;2023-05-07T18:21:09;22.30;49.70
49148;DHT22;41980;45.550;12.070;2023-05-07T18:27:17;22.30;50.20
49148;DHT22;41980;45.550;12.070;2023-05-07T18:33:19;22.20;50.10
49148;DHT22;41980;45.550;12.070;2023-05-07T18:39:21;22.00;50.20
49148;DHT22;41980;45.550;12.070;2023-05-07T18:45:23;21.90;50.50
49148;DHT22;41980;45.550;12.070;2023-05-07T18:51:25;21.70;50.80
49148;DHT22;41980;45.550;12.070;2023-05-07T18:57:27;21.60;50.90
49148;DHT22;41980;45.550;12.070;2023-05-07T19:03:31;21.60;51.20
49148;DHT22;41980;45.550;12.070;2023-05-07T19:09:33;21.60;51.40
49148;DHT22;41980;45.550;12.070;2023-05-07T19:15:35;21.60;51.70
49148;DHT22;41980;45.550;12.070;2023-05-07T19:21:37;21.60;52.50
49148;DHT22;41980;45.550;12.070;2023-05-07T19:27:39;21.60;52.70
49148;DHT22;41980;45.550;12.070;2023-05-07T19:33:41;21.60;54.20
49148;DHT22;41980;45.550;12.070;2023-05-07T19:39:43;21.50;54.00
49148;DHT22;41980;45.550;12.070;2023-05-07T19:45:46;21.40;55.60
49148;DHT22;41980;45.550;12.070;2023-05-07T19:51:48;21.30;54.20
49148;DHT22;41980;45.550;12.070;2023-05-07T19:57:51;21.20;54.60
49148;DHT22;41980;45.550;12.070;2023-05-07T20:03:53;21.10;54.50
49148;DHT22;41980;45.550;12.070;2023-05-07T20:09:55;21.00;54.90
49148;DHT22;41980;45.550;12.070;2023-05-07T20:15:58;20.90;55.90
49148;DHT22;41980;45.550;12.070;2023-05-07T20:22:00;20.90;55.40
49148;DHT22;41980;45.550;12.070;2023-05-07T20:28:02;20.80;56.40
49148;DHT22;41980;45.550;12.070;2023-05-07T20:34:05;20.70;57.20
49148;DHT22;41980;45.550;12.070;2023-05-07T20:40:08;20.70;57.10
49148;DHT22;41980;45.550;12.070;2023-05-07T20:46:10;20.60;57.30
49148;DHT22;41980;45.550;12.070;2023-05-07T20:52:13;20.50;60.30
49148;DHT22;41980;45.550;12.070;2023-05-07T20:58:15;20.50;57.10
49148;DHT22;41980;45.550;12.070;2023-05-07T21:04:17;20.50;56.80
49148;DHT22;41980;45.550;12.070;2023-05-07T21:10:19;20.50;57.00
49148;DHT22;41980;45.550;12.070;2023-05-07T21:16:21;20.50;57.00
49148;DHT22;41980;45.550;12.070;2023-05-07T21:22:23;20.40;57.40
49148;DHT22;41980;45.550;12.070;2023-05-07T21:28:25;20.20;57.40
49148;DHT22;41980;45.550;12.070;2023-05-07T21:34:27;20.10;57.30
49148;DHT22;41980;45.550;12.070;2023-05-07T21:40:29;20.00;57.70
49148;DHT22;41980;45.550;12.070;2023-05-07T21:46:32;20.00;57.30
49148;DHT22;41980;45.550;12.070;2023-05-07T21:52:34;19.90;58.00
49148;DHT22;41980;45.550;12.070;2023-05-07T21:58:36;19.90;58.30
49148;DHT22;41980;45.550;12.070;2023-05-07T22:04:38;19.80;57.60
49148;DHT22;41980;45.550;12.070;2023-05-07T22:10:40;19.80;58.30
49148;DHT22;41980;45.550;12.070;2023-05-07T22:16:42;19.80;58.30
49148;DHT22;41980;45.550;12.070;2023-05-07T22:22:47;19.70;59.20
49148;DHT22;41980;45.550;12.070;2023-05-07T22:28:50;19.70;59.60
49148;DHT22;41980;45.550;12.070;2023-05-07T22:34:52;19.60;60.10
49148;DHT22;41980;45.550;12.070;2023-05-07T22:40:54;19.50;61.60
49148;DHT22;41980;45.550;12.070;2023-05-07T22:46:55;19.50;61.70
49148;DHT22;41980;45.550;12.070;2023-05-07T22:52:58;19.40;61.90
49148;DHT22;41980;45.550;12.070;2023-05-07T22:58:59;19.30;62.30
49148;DHT22;41980;45.550;12.070;2023-05-07T23:05:01;19.20;63.30
49148;DHT22;41980;45.550;12.070;2023-05-07T23:11:04;19.10;64.20
49148;DHT22;41980;45.550;12.070;2023-05-07T23:17:06;19.10;64.00
49148;DHT22;41980;45.550;12.070;2023-05-07T23:23:08;19.10;64.20
49148;DHT22;41980;45.550;12.070;2023-05-07T23:29:09;19.10;63.90
49148;DHT22;41980;45.550;12.070;2023-05-07T23:35:11;19.30;64.60
49148;DHT22;41980;45.550;12.070;2023-05-07T23:41:13;19.30;63.50
49148;DHT22;41980;45.550;12.070;2023-05-07T23:47:16;19.40;62.90
49148;DHT22;41980;45.550;12.070;2023-05-07T23:53:18;19.40;63.20
49148;DHT22;41980;45.550;12.070;2023-05-07T23:59:20;19.40;63.10
